Time;durP1;ratioP1;P1;durP2;ratioP2;P2;SDS_P1;SDS_P2;PMS_P1;PMS_P2;Temp;Humidity;BMP_temperature;BMP_pressure;BME280_temperature;BME280_humidity;BME280_pressure;Samples;Min_cycle;Max_cycle;Signal;HPM_P1;HPM_P2
2022/08/07 00:02:26;;;;;;;5.90;3.30;;;26.70;99.90;;;;;;1890781;74;21225;-79
2022/08/07 00:04:59;;;;;;;8.08;3.67;;;26.70;99.90;;;;;;1887007;73;21227;-79
2022/08/07 00:07:31;;;;;;;11.55;3.70;;;26.80;99.90;;;;;;1891403;74;21147;-80
2022/08/07 00:10:03;;;;;;;7.30;3.40;;;26.80;99.90;;;;;;1821999;77;21078;-79
2022/08/07 00:12:36;;;;;;;8.35;3.40;;;26.80;99.90;;;;;;1806792;77;21658;-80
2022/08/07 00:15:09;;;;;;;6.72;3.33;;;26.90;99.90;;;;;;1795993;77;21171;-80
2022/08/07 00:17:42;;;;;;;6.40;3.15;;;26.90;99.90;;;;;;1805706;77;21123;-80
2022/08/07 00:20:13;;;;;;;6.75;3.60;;;27.00;99.90;;;;;;1781399;79;21172;-80
2022/08/07 00:22:45;;;;;;;6.55;3.55;;;27.10;99.90;;;;;;1811730;77;21126;-81
2022/08/07 00:25:18;;;;;;;6.78;3.85;;;27.10;99.90;;;;;;1802602;76;21250;-80
2022/08/07 00:27:51;;;;;;;7.35;4.15;;;27.10;99.90;;;;;;1807763;77;21242;-80
2022/08/07 00:30:24;;;;;;;5.83;3.40;;;27.10;99.90;;;;;;1815941;77;21085;-80
2022/08/07 00:32:58;;;;;;;6.08;3.50;;;27.10;99.90;;;;;;1804335;77;21120;-80
2022/08/07 00:35:31;;;;;;;7.62;3.77;;;27.20;99.90;;;;;;1809240;77;21217;-79
2022/08/07 00:38:04;;;;;;;5.40;3.17;;;27.20;99.90;;;;;;1811856;77;21150;-80
2022/08/07 00:40:37;;;;;;;8.93;3.55;;;27.30;99.90;;;;;;1775934;79;21242;-78
2022/08/07 00:43:13;;;;;;;5.60;3.58;;;27.30;99.90;;;;;;1863197;76;21603;-80
2022/08/07 00:45:47;;;;;;;8.90;3.30;;;27.30;99.90;;;;;;1808770;77;21167;-80
2022/08/07 00:48:19;;;;;;;5.70;3.20;;;27.40;99.90;;;;;;1875625;76;21201;-80
2022/08/07 00:50:51;;;;;;;5.70;3.02;;;27.40;99.90;;;;;;1803317;75;21608;-79
2022/08/07 00:53:23;;;;;;;8.10;4.00;;;27.50;99.90;;;;;;1796431;78;21592;-78
2022/08/07 00:55:58;;;;;;;6.08;3.25;;;27.50;99.90;;;;;;1801613;77;21623;-80
2022/08/07 00:58:32;;;;;;;7.22;3.05;;;27.50;99.90;;;;;;1787230;79;21191;-80
2022/08/07 01:01:04;;;;;;;6.42;3.37;;;27.50;99.90;;;;;;1809758;77;21175;-79
2022/08/07 01:03:36;;;;;;;6.20;3.40;;;27.60;99.90;;;;;;1798698;79;21137;-79
2022/08/07 01:06:12;;;;;;;7.90;4.47;;;27.60;99.90;;;;;;1802623;77;21675;-79
2022/08/07 01:08:45;;;;;;;8.40;3.92;;;27.60;99.90;;;;;;1808382;78;21730;-80
2022/08/07 01:11:18;;;;;;;5.92;3.20;;;27.70;99.90;;;;;;1822859;77;21730;-79
2022/08/07 01:13:53;;;;;;;5.35;2.65;;;27.80;99.90;;;;;;1787121;77;21174;-80
2022/08/07 01:16:25;;;;;;;6.85;3.33;;;27.80;99.90;;;;;;1843688;76;21629;-80
2022/08/07 01:18:58;;;;;;;7.30;2.67;;;27.80;99.90;;;;;;1856519;75;21175;-80
2022/08/07 01:21:31;;;;;;;4.92;3.00;;;27.90;99.90;;;;;;1852291;76;21264;-80
2022/08/07 01:24:15;;;;;;;7.08;3.55;;;27.90;99.90;;;;;;1793934;77;21646;-79
2022/08/07 01:26:43;;;;;;;6.30;3.27;;;28.00;99.90;;;;;;1793162;77;21259;-79
2022/08/07 01:29:18;;;;;;;5.62;2.95;;;28.00;99.90;;;;;;1851503;76;21132;-79
2022/08/07 01:31:51;;;;;;;5.12;2.92;;;28.00;99.90;;;;;;1846902;75;21157;-79
2022/08/07 01:34:22;;;;;;;5.55;2.90;;;28.10;99.90;;;;;;1827426;75;21062;-78
2022/08/07 01:36:55;;;;;;;6.45;2.42;;;28.10;99.80;;;;;;1818453;76;21197;-80
2022/08/07 01:39:28;;;;;;;4.83;3.00;;;28.10;99.90;;;;;;1808232;77;21652;-79
2022/08/07 01:42:00;;;;;;;6.37;3.15;;;28.20;99.90;;;;;;1818678;75;21128;-80
2022/08/07 01:44:33;;;;;;;3.98;2.60;;;28.20;99.70;;;;;;1845317;77;21670;-80
2022/08/07 01:47:04;;;;;;;3.33;2.35;;;28.20;99.80;;;;;;1831970;77;21163;-81
2022/08/07 01:49:37;;;;;;;6.40;3.25;;;28.20;99.60;;;;;;1819214;75;21172;-78
2022/08/07 01:52:09;;;;;;;4.97;2.90;;;28.20;99.70;;;;;;1822952;77;21681;-80
2022/08/07 01:54:44;;;;;;;4.60;2.77;;;28.20;99.60;;;;;;1823744;77;21195;-79
2022/08/07 01:57:17;;;;;;;5.30;2.65;;;28.30;99.60;;;;;;1815429;76;21118;-78
2022/08/07 01:59:52;;;;;;;8.50;3.20;;;28.30;99.80;;;;;;1818992;77;21164;-78
2022/08/07 02:02:26;;;;;;;6.47;3.20;;;28.40;99.80;;;;;;1827061;75;21133;-78
2022/08/07 02:05:01;;;;;;;5.58;3.05;;;28.50;99.70;;;;;;1812091;77;21134;-79
2022/08/07 02:07:35;;;;;;;6.05;2.70;;;28.60;99.50;;;;;;1802089;78;21198;-79
2022/08/07 02:10:09;;;;;;;7.78;3.00;;;28.60;99.30;;;;;;1789417;77;21211;-80
2022/08/07 02:12:44;;;;;;;4.45;2.85;;;28.70;99.30;;;;;;1808098;77;21192;-79
2022/08/07 02:15:18;;;;;;;6.78;2.50;;;28.70;99.00;;;;;;1824115;76;21193;-80
2022/08/07 02:17:52;;;;;;;6.30;2.60;;;28.80;99.10;;;;;;1880478;74;21606;-80
2022/08/07 02:20:25;;;;;;;4.00;2.30;;;28.90;98.90;;;;;;1820379;77;21527;-78
2022/08/07 02:23:00;;;;;;;4.65;2.70;;;29.00;98.70;;;;;;1841718;76;21092;-78
2022/08/07 02:25:33;;;;;;;5.55;2.80;;;29.10;98.20;;;;;;1828977;77;21170;-78
2022/08/07 02:28:07;;;;;;;6.72;2.77;;;29.20;97.70;;;;;;1898453;74;21146;-79
2022/08/07 02:30:41;;;;;;;4.55;2.30;;;29.20;97.90;;;;;;1884641;74;21142;-80
2022/08/07 02:33:13;;;;;;;4.45;2.60;;;29.20;98.10;;;;;;1879370;74;21452;-79
2022/08/07 02:35:48;;;;;;;4.00;2.35;;;29.20;97.50;;;;;;1886694;74;21083;-79
2022/08/07 02:38:26;;;;;;;5.80;2.90;;;29.20;97.40;;;;;;1804787;77;21132;-78
2022/08/07 02:40:58;;;;;;;3.33;2.67;;;29.40;97.10;;;;;;1837248;75;21195;-79
2022/08/07 02:43:30;;;;;;;4.67;2.70;;;29.40;96.90;;;;;;1841207;76;21568;-80
2022/08/07 02:46:03;;;;;;;5.92;2.40;;;29.50;96.80;;;;;;1842772;76;21107;-80
2022/08/07 02:48:34;;;;;;;7.50;2.50;;;29.70;96.60;;;;;;1839523;76;21224;-78
2022/08/07 02:51:09;;;;;;;5.87;2.58;;;29.80;96.30;;;;;;1840456;76;21630;-79
2022/08/07 02:53:44;;;;;;;4.92;2.62;;;29.80;95.80;;;;;;1844756;76;21098;-80
2022/08/07 02:56:18;;;;;;;5.22;2.72;;;29.80;95.70;;;;;;1802089;77;21221;-82
2022/08/07 02:58:51;;;;;;;4.85;2.47;;;29.80;95.80;;;;;;1845282;75;21088;-79
2022/08/07 03:01:26;;;;;;;6.45;2.42;;;29.80;95.10;;;;;;1838237;76;21171;-79
2022/08/07 03:03:59;;;;;;;8.68;3.10;;;29.80;95.90;;;;;;1838301;76;21639;-79
2022/08/07 03:06:33;;;;;;;4.45;2.70;;;29.90;95.80;;;;;;1808003;77;21594;-80
2022/08/07 03:09:09;;;;;;;5.50;3.08;;;30.00;95.60;;;;;;1838773;76;21213;-79
2022/08/07 03:11:46;;;;;;;4.37;2.62;;;30.10;95.60;;;;;;1812424;76;21183;-78
2022/08/07 03:14:19;;;;;;;5.30;2.50;;;30.10;94.70;;;;;;1893181;74;21098;-78
2022/08/07 03:16:51;;;;;;;5.22;2.98;;;30.10;95.10;;;;;;1833234;77;21653;-78
2022/08/07 03:19:23;;;;;;;4.80;2.77;;;30.10;95.20;;;;;;1856539;75;21152;-78
2022/08/07 03:21:56;;;;;;;5.92;3.02;;;30.10;95.40;;;;;;1871062;74;21170;-78
2022/08/07 03:24:28;;;;;;;6.45;2.70;;;30.10;95.10;;;;;;1825722;77;21188;-79
2022/08/07 03:27:02;;;;;;;4.05;2.22;;;30.10;95.10;;;;;;1883268;75;21711;-80
2022/08/07 03:29:37;;;;;;;5.12;2.40;;;30.00;95.20;;;;;;1863398;75;21107;-80
2022/08/07 03:32:12;;;;;;;4.25;2.77;;;30.10;95.30;;;;;;1813681;78;21167;-80
2022/08/07 03:34:45;;;;;;;6.95;2.70;;;30.10;95.10;;;;;;1888006;75;21167;-79
2022/08/07 03:37:19;;;;;;;7.03;2.83;;;30.00;95.10;;;;;;1891750;74;21215;-80
2022/08/07 03:39:52;;;;;;;7.03;2.70;;;30.00;95.10;;;;;;1896935;74;21221;-79
2022/08/07 03:42:25;;;;;;;7.67;2.85;;;29.90;95.30;;;;;;1904590;74;21186;-79
2022/08/07 03:44:56;;;;;;;5.85;2.37;;;29.90;95.30;;;;;;1906786;74;21087;-81
2022/08/07 03:47:30;;;;;;;3.83;2.40;;;29.90;95.10;;;;;;1894053;74;21091;-80
2022/08/07 03:50:04;;;;;;;4.65;2.27;;;29.90;95.20;;;;;;1904225;73;21336;-81
2022/08/07 03:52:37;;;;;;;5.33;2.67;;;29.80;95.30;;;;;;1897167;74;21090;-79
2022/08/07 03:55:09;;;;;;;6.92;2.77;;;29.90;95.20;;;;;;1891967;74;21700;-79
2022/08/07 03:57:42;;;;;;;4.05;2.47;;;29.90;95.10;;;;;;1897397;74;21111;-80
2022/08/07 04:00:15;;;;;;;3.83;2.37;;;29.90;95.20;;;;;;1890986;75;21147;-80
2022/08/07 04:02:48;;;;;;;4.95;2.42;;;29.90;94.40;;;;;;1901081;74;21155;-80
2022/08/07 04:05:21;;;;;;;8.65;2.90;;;29.90;94.40;;;;;;1852725;76;21268;-78
2022/08/07 04:07:54;;;;;;;4.45;2.65;;;29.90;94.60;;;;;;1880020;76;21110;-80
2022/08/07 04:10:25;;;;;;;4.25;2.30;;;29.80;95.00;;;;;;1885097;76;21206;-80
2022/08/07 04:12:58;;;;;;;8.35;2.90;;;29.80;94.60;;;;;;1879140;75;21254;-81
2022/08/07 04:15:30;;;;;;;6.00;2.62;;;29.90;94.80;;;;;;1786212;78;21539;-81
2022/08/07 04:18:03;;;;;;;6.47;2.65;;;29.90;94.60;;;;;;1821953;77;21186;-81
2022/08/07 04:20:35;;;;;;;4.42;2.65;;;29.80;94.30;;;;;;1827267;77;21232;-81
2022/08/07 04:23:09;;;;;;;4.35;2.62;;;29.80;94.60;;;;;;1879884;75;21214;-80
2022/08/07 04:25:45;;;;;;;3.58;2.10;;;29.80;94.60;;;;;;1867563;76;21111;-80
2022/08/07 04:28:17;;;;;;;4.53;2.30;;;29.80;94.80;;;;;;1868770;75;21129;-80
2022/08/07 04:30:51;;;;;;;4.12;2.55;;;29.80;94.60;;;;;;1791693;77;21151;-80
2022/08/07 04:33:25;;;;;;;4.75;2.33;;;29.80;94.50;;;;;;1776407;78;21152;-81
2022/08/07 04:35:56;;;;;;;4.08;2.60;;;29.90;94.90;;;;;;1815770;77;21162;-80
2022/08/07 04:38:27;;;;;;;4.15;2.65;;;30.00;94.90;;;;;;1816715;75;21621;-81
2022/08/07 04:40:58;;;;;;;5.42;2.62;;;30.20;94.80;;;;;;1857459;77;21158;-81
2022/08/07 04:43:33;;;;;;;3.22;2.40;;;30.20;94.80;;;;;;1787961;78;21160;-81
2022/08/07 04:46:07;;;;;;;5.00;2.52;;;30.30;94.60;;;;;;1810112;77;21148;-81
2022/08/07 04:48:42;;;;;;;3.65;2.47;;;30.50;93.80;;;;;;1813534;77;21270;-80
2022/08/07 04:51:19;;;;;;;4.58;2.20;;;30.50;93.50;;;;;;1800332;77;21201;-81
2022/08/07 04:53:54;;;;;;;5.25;2.80;;;30.50;93.40;;;;;;1804630;77;21186;-80
2022/08/07 04:56:30;;;;;;;3.87;2.70;;;30.50;93.70;;;;;;1832051;76;21155;-81
2022/08/07 04:59:04;;;;;;;4.10;2.20;;;30.50;93.90;;;;;;1803257;77;21155;-81
2022/08/07 05:01:39;;;;;;;6.87;2.98;;;30.50;93.80;;;;;;1825731;76;21262;-80
2022/08/07 05:04:14;;;;;;;8.50;2.95;;;30.60;93.90;;;;;;1792143;79;21158;-81
2022/08/07 05:06:49;;;;;;;4.92;2.75;;;30.60;94.30;;;;;;1791948;79;21176;-80
2022/08/07 05:09:24;;;;;;;6.00;2.22;;;30.70;94.20;;;;;;1864399;76;21222;-81
2022/08/07 05:11:57;;;;;;;3.98;2.52;;;30.70;93.70;;;;;;1784874;77;21181;-79
2022/08/07 05:14:32;;;;;;;5.22;2.75;;;30.70;93.40;;;;;;1808255;78;21210;-80
2022/08/07 05:17:06;;;;;;;4.87;2.80;;;30.60;93.50;;;;;;1879404;75;21150;-84
2022/08/07 05:19:50;;;;;;;5.92;2.80;;;30.60;93.90;;;;;;1877766;75;21195;-80
2022/08/07 05:22:35;;;;;;;4.45;2.30;;;30.50;94.10;;;;;;1882271;76;21697;-81
2022/08/07 05:25:25;;;;;;;4.15;2.50;;;30.40;94.30;;;;;;1879891;74;21111;-80
2022/08/07 05:27:59;;;;;;;7.53;2.40;;;30.30;94.50;;;;;;1876326;75;21154;-81
2022/08/07 05:30:33;;;;;;;5.50;2.85;;;30.20;94.80;;;;;;1878093;74;21090;-79
2022/08/07 05:33:06;;;;;;;2.92;1.77;;;30.20;95.00;;;;;;1880608;75;21139;-80
2022/08/07 05:35:38;;;;;;;3.60;2.00;;;30.10;94.10;;;;;;1881040;75;21145;-81
2022/08/07 05:38:12;;;;;;;3.62;2.33;;;30.00;93.80;;;;;;1889294;75;21135;-79
2022/08/07 05:40:44;;;;;;;4.00;2.70;;;30.00;93.90;;;;;;1836345;77;21123;-79
2022/08/07 05:43:17;;;;;;;4.22;2.05;;;29.90;93.70;;;;;;1837723;77;21485;-80
2022/08/07 05:45:51;;;;;;;5.10;2.00;;;30.00;93.70;;;;;;1813635;78;21195;-83
2022/08/07 05:48:25;;;;;;;7.03;2.30;;;30.00;93.30;;;;;;1856951;76;21214;-80
2022/08/07 05:50:59;;;;;;;3.87;2.25;;;30.10;93.20;;;;;;1866437;76;21170;-80
2022/08/07 05:53:32;;;;;;;5.10;2.30;;;30.10;93.20;;;;;;1872344;75;21186;-80
2022/08/07 05:56:05;;;;;;;2.92;2.00;;;30.10;93.50;;;;;;1871378;76;21191;-81
2022/08/07 05:58:38;;;;;;;3.87;2.08;;;30.10;93.20;;;;;;1890384;75;21073;-82
2022/08/07 06:01:12;;;;;;;2.75;1.70;;;30.10;93.40;;;;;;1883654;74;21194;-81
2022/08/07 06:03:46;;;;;;;2.80;1.60;;;30.10;92.40;;;;;;1868910;76;21177;-81
2022/08/07 06:06:19;;;;;;;4.53;1.70;;;30.20;93.00;;;;;;1862808;75;21708;-80
2022/08/07 06:08:54;;;;;;;5.05;1.72;;;30.20;92.30;;;;;;1844586;73;21101;-81
2022/08/07 06:11:26;;;;;;;3.70;1.70;;;30.30;91.70;;;;;;1853480;76;21206;-81
2022/08/07 06:13:58;;;;;;;3.05;1.27;;;30.30;92.00;;;;;;1845417;76;21539;-80
2022/08/07 06:16:33;;;;;;;4.58;1.80;;;30.40;92.20;;;;;;1870832;75;21253;-81
2022/08/07 06:19:05;;;;;;;4.40;1.87;;;30.50;92.20;;;;;;1835461;77;21123;-80
2022/08/07 06:21:37;;;;;;;3.22;1.67;;;30.60;92.00;;;;;;1863830;73;21249;-81
2022/08/07 06:24:10;;;;;;;2.58;1.67;;;30.60;92.10;;;;;;1860192;74;21161;-81
2022/08/07 06:26:46;;;;;;;3.37;1.80;;;30.60;92.40;;;;;;1864841;75;21078;-80
2022/08/07 06:29:18;;;;;;;2.65;2.10;;;30.60;92.30;;;;;;1854668;75;21059;-80
2022/08/07 06:31:53;;;;;;;4.45;2.30;;;30.50;92.30;;;;;;1883490;76;21159;-80
2022/08/07 06:34:26;;;;;;;4.37;2.15;;;30.60;92.70;;;;;;1880905;76;21245;-80
2022/08/07 06:36:58;;;;;;;4.20;1.90;;;30.50;92.90;;;;;;1890900;73;21159;-80
2022/08/07 06:39:32;;;;;;;4.05;2.35;;;30.60;92.60;;;;;;1872853;74;21789;-81
2022/08/07 06:42:05;;;;;;;4.47;2.20;;;30.60;92.90;;;;;;1859862;74;21178;-81
2022/08/07 06:44:44;;;;;;;2.83;1.87;;;30.60;93.10;;;;;;1865385;76;21108;-81
2022/08/07 06:47:12;;;;;;;4.42;2.33;;;30.60;92.90;;;;;;1861585;77;21233;-81
2022/08/07 06:49:45;;;;;;;5.47;1.87;;;30.60;92.40;;;;;;1859764;76;21529;-80
2022/08/07 06:52:22;;;;;;;6.83;2.20;;;30.60;92.80;;;;;;1891362;75;21255;-81
2022/08/07 06:54:54;;;;;;;4.25;1.92;;;30.60;92.70;;;;;;1861613;75;21179;-80
2022/08/07 06:57:28;;;;;;;3.75;2.25;;;30.60;92.70;;;;;;1884003;74;21142;-81
2022/08/07 07:00:01;;;;;;;3.42;1.92;;;30.60;92.70;;;;;;1886335;76;21298;-80
2022/08/07 07:02:34;;;;;;;4.55;2.25;;;30.60;92.90;;;;;;1923474;74;21130;-79
2022/08/07 07:05:07;;;;;;;3.98;2.08;;;30.60;92.90;;;;;;1893258;74;21062;-81
2022/08/07 07:07:39;;;;;;;4.12;2.12;;;30.60;92.60;;;;;;1892607;74;21130;-81
2022/08/07 07:10:13;;;;;;;3.02;2.00;;;30.60;92.50;;;;;;1889932;76;21148;-81
2022/08/07 07:12:48;;;;;;;3.33;1.98;;;30.60;92.60;;;;;;1899365;74;21404;-81
2022/08/07 07:15:23;;;;;;;4.30;1.90;;;30.60;92.80;;;;;;1868986;73;21571;-82
2022/08/07 07:17:56;;;;;;;4.20;1.85;;;30.60;92.60;;;;;;1857234;75;21591;-81
2022/08/07 07:20:29;;;;;;;2.72;1.82;;;30.60;92.60;;;;;;1864944;75;21243;-79
2022/08/07 07:23:01;;;;;;;5.67;2.40;;;30.60;93.00;;;;;;1873259;75;21229;-80
2022/08/07 07:25:36;;;;;;;3.02;2.15;;;30.60;93.30;;;;;;1859183;75;21143;-79
2022/08/07 07:28:11;;;;;;;2.95;1.85;;;30.50;94.10;;;;;;1858229;76;21088;-80
2022/08/07 07:30:46;;;;;;;5.00;2.35;;;30.40;94.40;;;;;;1858298;75;21130;-79
2022/08/07 07:33:20;;;;;;;7.60;2.47;;;30.20;94.70;;;;;;1881513;75;21135;-78
2022/08/07 07:39:08;;;;;;;6.67;2.83;;;29.90;95.80;;;;;;1864422;75;21139;-79
2022/08/07 07:41:43;;;;;;;4.75;2.25;;;29.70;96.40;;;;;;1863833;75;21075;-81
2022/08/07 07:44:30;;;;;;;4.70;2.40;;;29.50;96.60;;;;;;1878106;75;21156;-78
2022/08/07 07:47:02;;;;;;;5.65;2.30;;;29.50;96.60;;;;;;1874131;75;21131;-80
2022/08/07 07:49:37;;;;;;;3.25;1.27;;;29.40;96.90;;;;;;1863309;74;21146;-80
2022/08/07 07:52:11;;;;;;;3.40;1.30;;;29.20;95.50;;;;;;1865118;75;21175;-80
2022/08/07 07:54:45;;;;;;;3.65;1.30;;;29.20;94.80;;;;;;1854753;75;21151;-79
2022/08/07 07:57:20;;;;;;;2.10;0.98;;;29.10;94.60;;;;;;1860430;75;21072;-80
2022/08/07 07:59:54;;;;;;;4.25;1.85;;;29.10;94.00;;;;;;1851702;75;21217;-80
2022/08/07 08:02:30;;;;;;;3.08;1.47;;;29.10;94.30;;;;;;1870564;75;21179;-79
2022/08/07 08:05:09;;;;;;;5.33;1.90;;;29.10;94.60;;;;;;1870362;76;21126;-80
2022/08/07 08:07:44;;;;;;;2.05;1.42;;;29.10;94.60;;;;;;1864056;75;21235;-78
2022/08/07 08:10:21;;;;;;;2.62;1.35;;;29.10;94.60;;;;;;1861211;75;21159;-78
2022/08/07 08:12:58;;;;;;;3.50;1.57;;;29.20;94.60;;;;;;1846506;76;22030;-80
2022/08/07 08:15:34;;;;;;;3.15;1.25;;;29.20;94.50;;;;;;1880813;74;21067;-80
2022/08/07 08:18:08;;;;;;;6.67;1.75;;;29.30;94.50;;;;;;1880341;74;21133;-80
2022/08/07 08:20:47;;;;;;;4.53;1.77;;;29.30;94.40;;;;;;1888447;74;21656;-79
2022/08/07 08:28:40;;;;;;;3.42;1.60;;;29.30;94.60;;;;;;1890581;74;21151;-78
2022/08/07 08:31:16;;;;;;;4.30;1.52;;;29.40;94.60;;;;;;1869312;76;21173;-78
2022/08/07 08:33:50;;;;;;;2.83;1.50;;;29.40;94.60;;;;;;1794573;78;21211;-79
2022/08/07 08:36:25;;;;;;;9.10;4.78;;;29.50;94.60;;;;;;1837556;74;21177;-79
2022/08/07 08:39:05;;;;;;;4.15;2.10;;;29.50;94.40;;;;;;1825201;77;21589;-78
2022/08/07 08:41:37;;;;;;;5.58;2.30;;;29.50;94.20;;;;;;1836826;77;21680;-79
2022/08/07 08:44:14;;;;;;;4.65;1.60;;;29.50;94.50;;;;;;1795821;78;21254;-81
2022/08/07 08:46:50;;;;;;;5.37;1.95;;;29.60;95.40;;;;;;1817936;77;21689;-80
2022/08/07 08:49:30;;;;;;;5.67;1.75;;;29.60;95.10;;;;;;1808785;78;21199;-79
2022/08/07 08:52:01;;;;;;;5.30;1.62;;;29.60;95.20;;;;;;1836782;76;21177;-80
2022/08/07 08:54:36;;;;;;;4.75;1.85;;;29.60;95.20;;;;;;1845774;75;22584;-80
2022/08/07 08:57:11;;;;;;;2.77;1.57;;;29.60;95.20;;;;;;1791194;78;21127;-79
2022/08/07 08:59:48;;;;;;;3.75;1.50;;;29.60;95.50;;;;;;1852374;76;21117;-78
2022/08/07 09:02:23;;;;;;;4.75;1.98;;;29.60;95.20;;;;;;1844127;76;21146;-80
2022/08/07 09:04:57;;;;;;;2.90;1.55;;;29.50;95.20;;;;;;1848197;76;21150;-78
2022/08/07 09:07:30;;;;;;;3.87;1.50;;;29.50;95.10;;;;;;1835860;77;21242;-79
2022/08/07 09:10:06;;;;;;;4.78;1.55;;;29.50;95.00;;;;;;1856202;76;21165;-79
2022/08/07 09:12:41;;;;;;;5.20;2.00;;;29.60;95.10;;;;;;1868271;75;21216;-78
2022/08/07 09:15:17;;;;;;;4.90;2.10;;;29.60;95.10;;;;;;1899114;74;21103;-79
2022/08/07 09:17:55;;;;;;;3.02;1.85;;;29.60;94.90;;;;;;1887887;74;21095;-79
2022/08/07 09:20:26;;;;;;;6.12;2.70;;;29.60;94.90;;;;;;1888161;74;21519;-77
2022/08/07 09:23:00;;;;;;;5.60;2.10;;;29.70;95.00;;;;;;1829579;77;21119;-79
2022/08/07 09:25:37;;;;;;;5.97;2.10;;;29.60;94.90;;;;;;1882918;75;21521;-80
2022/08/07 09:28:18;;;;;;;4.25;2.30;;;29.60;94.70;;;;;;1881009;75;21861;-78
2022/08/07 09:30:44;;;;;;;6.50;2.50;;;29.60;94.50;;;;;;1884114;74;21157;-79
2022/08/07 09:33:19;;;;;;;4.50;2.20;;;29.60;94.50;;;;;;1904635;75;21138;-79
2022/08/07 09:35:53;;;;;;;5.22;2.60;;;29.60;94.80;;;;;;1892181;74;21172;-77
2022/08/07 09:38:30;;;;;;;3.70;1.95;;;29.60;95.10;;;;;;1900962;74;21232;-79
2022/08/07 09:41:19;;;;;;;3.67;2.15;;;29.50;94.30;;;;;;1906729;74;21676;-80
2022/08/07 09:43:40;;;;;;;5.22;2.50;;;29.30;94.60;;;;;;1886645;74;21170;-78
2022/08/07 09:46:14;;;;;;;4.50;2.30;;;29.20;94.90;;;;;;1889322;74;21671;-79
2022/08/07 09:48:54;;;;;;;4.25;2.20;;;29.10;95.10;;;;;;1892619;74;21154;-78
2022/08/07 09:51:30;;;;;;;3.52;2.15;;;29.00;95.20;;;;;;1828440;77;21136;-79
2022/08/07 09:54:09;;;;;;;5.67;3.27;;;28.90;95.50;;;;;;1862025;75;21208;-79
2022/08/07 09:56:42;;;;;;;5.45;3.05;;;28.80;96.10;;;;;;1857176;75;21523;-78
2022/08/07 09:59:15;;;;;;;7.53;3.12;;;28.70;96.40;;;;;;1860505;75;21107;-78
2022/08/07 10:01:48;;;;;;;4.37;2.92;;;28.70;96.80;;;;;;1878573;76;21136;-82
2022/08/07 10:04:24;;;;;;;8.33;3.60;;;28.60;97.10;;;;;;1873323;76;21196;-79
2022/08/07 10:06:59;;;;;;;6.95;3.70;;;28.60;97.40;;;;;;1859138;76;21494;-79
2022/08/07 10:09:36;;;;;;;8.28;4.12;;;28.60;97.70;;;;;;1889376;74;21189;-79
2022/08/07 10:12:09;;;;;;;9.95;4.75;;;28.50;97.90;;;;;;1875724;74;21591;-80
2022/08/07 10:14:45;;;;;;;7.75;4.97;;;28.40;98.20;;;;;;1901739;74;21141;-81
2022/08/07 10:17:18;;;;;;;7.55;4.83;;;28.40;98.40;;;;;;1842288;77;21135;-81
2022/08/07 10:19:50;;;;;;;7.45;5.08;;;28.40;98.70;;;;;;1884940;75;21197;-80
2022/08/07 10:22:26;;;;;;;8.33;5.03;;;28.30;98.50;;;;;;1877155;75;21155;-81
2022/08/07 10:25:03;;;;;;;9.18;5.35;;;28.30;98.80;;;;;;1892798;75;21134;-79
2022/08/07 10:27:37;;;;;;;10.03;4.67;;;28.30;98.80;;;;;;1897496;74;21208;-80
2022/08/07 10:30:11;;;;;;;8.63;4.92;;;28.30;98.90;;;;;;1889232;74;21687;-80
2022/08/07 10:32:45;;;;;;;13.90;4.80;;;28.20;99.10;;;;;;1885887;74;21578;-80
2022/08/07 10:35:20;;;;;;;9.00;4.20;;;28.20;99.50;;;;;;1890565;74;21203;-80
2022/08/07 10:37:57;;;;;;;9.83;4.47;;;28.20;99.20;;;;;;1897039;74;21119;-80
2022/08/07 10:40:35;;;;;;;7.87;4.03;;;28.20;99.40;;;;;;1898340;74;21500;-79
2022/08/07 10:43:08;;;;;;;6.87;3.85;;;28.10;99.30;;;;;;1895010;73;21137;-79
2022/08/07 10:45:45;;;;;;;8.48;4.33;;;28.10;99.50;;;;;;1901017;74;21087;-79
2022/08/07 10:48:20;;;;;;;6.50;4.70;;;28.10;99.60;;;;;;1899219;74;21177;-78
2022/08/07 10:50:54;;;;;;;7.22;4.50;;;28.10;99.60;;;;;;1885190;74;21184;-79
2022/08/07 10:53:32;;;;;;;7.80;4.22;;;28.10;99.60;;;;;;1892875;74;21243;-79
2022/08/07 10:56:12;;;;;;;6.60;4.20;;;28.10;99.70;;;;;;1901014;74;21129;-79
2022/08/07 10:58:50;;;;;;;7.10;4.05;;;28.00;99.90;;;;;;1904608;73;21147;-79
2022/08/07 11:01:22;;;;;;;5.95;3.60;;;28.00;99.80;;;;;;1918340;74;21121;-79
2022/08/07 11:03:57;;;;;;;8.90;4.55;;;28.00;99.90;;;;;;1912113;73;21224;-79
2022/08/07 11:06:32;;;;;;;7.85;5.00;;;28.00;99.90;;;;;;1915213;74;21628;-80
2022/08/07 11:09:08;;;;;;;8.25;4.37;;;27.90;99.90;;;;;;1892203;74;21213;-78
2022/08/07 11:11:47;;;;;;;5.75;3.98;;;27.90;99.90;;;;;;1896780;74;21140;-80
2022/08/07 11:14:18;;;;;;;6.75;4.50;;;27.90;99.90;;;;;;1910601;74;21120;-80
2022/08/07 11:16:56;;;;;;;7.92;4.00;;;27.90;99.90;;;;;;1891234;74;21127;-79
2022/08/07 11:19:34;;;;;;;4.83;3.65;;;27.90;99.90;;;;;;1908225;73;21265;-80
2022/08/07 11:22:06;;;;;;;5.10;3.65;;;27.90;99.90;;;;;;1896802;74;21131;-79
2022/08/07 11:24:41;;;;;;;5.72;3.90;;;27.90;99.90;;;;;;1852672;76;21134;-79
2022/08/07 11:27:15;;;;;;;6.75;4.35;;;27.90;99.90;;;;;;1838342;76;21190;-79
2022/08/07 11:29:48;;;;;;;7.42;4.47;;;27.90;99.90;;;;;;1838741;76;21154;-79
2022/08/07 11:32:22;;;;;;;6.83;3.92;;;27.90;99.90;;;;;;1837290;76;21212;-79
2022/08/07 11:34:59;;;;;;;7.80;4.87;;;27.90;99.90;;;;;;1840149;76;21620;-78
2022/08/07 11:37:36;;;;;;;7.37;4.60;;;27.90;99.90;;;;;;1843354;76;21499;-80
2022/08/07 11:40:26;;;;;;;9.13;4.65;;;27.90;99.90;;;;;;1792146;77;21250;-77
2022/08/07 11:43:03;;;;;;;8.40;4.58;;;27.90;99.90;;;;;;1867674;75;21164;-78
2022/08/07 11:45:32;;;;;;;8.90;4.87;;;27.90;99.90;;;;;;1873213;76;21126;-79
2022/08/07 11:48:10;;;;;;;7.45;4.53;;;27.90;99.90;;;;;;1843187;76;21175;-79
2022/08/07 11:50:43;;;;;;;7.47;5.17;;;27.90;99.90;;;;;;1842181;76;21197;-76
2022/08/07 11:53:23;;;;;;;8.80;4.78;;;27.90;99.90;;;;;;1853898;75;21188;-79
2022/08/07 11:55:56;;;;;;;7.58;4.67;;;27.90;99.90;;;;;;1804496;77;21209;-79
2022/08/07 11:58:37;;;;;;;8.05;5.08;;;27.90;99.90;;;;;;1850151;76;21162;-78
2022/08/07 12:01:12;;;;;;;7.67;5.05;;;27.90;99.90;;;;;;1856317;75;21151;-79
2022/08/07 12:03:50;;;;;;;8.95;4.95;;;27.90;99.90;;;;;;1831321;76;21150;-79
2022/08/07 12:06:23;;;;;;;8.35;5.17;;;27.90;99.90;;;;;;1855112;76;21622;-78
2022/08/07 12:08:57;;;;;;;8.25;5.05;;;27.90;99.90;;;;;;1836415;76;21139;-79
2022/08/07 12:11:31;;;;;;;11.35;5.08;;;27.90;99.90;;;;;;1823820;77;21219;-78
2022/08/07 12:14:19;;;;;;;10.00;5.03;;;27.90;99.90;;;;;;1851919;76;21154;-79
2022/08/07 12:17:00;;;;;;;7.80;5.28;;;27.80;99.90;;;;;;1859291;76;21135;-79
2022/08/07 12:19:33;;;;;;;8.38;5.92;;;27.80;99.90;;;;;;1803202;77;21172;-79
2022/08/07 12:22:08;;;;;;;7.47;4.85;;;27.90;99.90;;;;;;1794354;77;21570;-80
2022/08/07 12:27:22;;;;;;;7.35;5.28;;;27.90;99.90;;;;;;1792040;78;21177;-80
2022/08/07 12:29:56;;;;;;;8.30;5.28;;;27.90;99.90;;;;;;1787251;78;21126;-79
2022/08/07 12:32:33;;;;;;;10.70;5.72;;;27.90;99.90;;;;;;1794140;78;21091;-80
2022/08/07 12:35:06;;;;;;;8.65;6.00;;;27.90;99.90;;;;;;1784369;78;21138;-79
2022/08/07 12:37:41;;;;;;;12.78;6.58;;;27.90;99.90;;;;;;1786656;77;21157;-79
2022/08/07 12:40:16;;;;;;;7.92;5.53;;;27.90;99.90;;;;;;1789964;77;21295;-80
2022/08/07 12:42:55;;;;;;;6.90;4.92;;;27.90;99.90;;;;;;1786567;78;21190;-79
2022/08/07 12:45:28;;;;;;;8.78;4.70;;;27.90;99.90;;;;;;1797136;78;21165;-79
2022/08/07 12:48:02;;;;;;;7.35;5.40;;;27.80;99.90;;;;;;1809820;77;21322;-79
2022/08/07 12:50:36;;;;;;;7.90;4.87;;;27.80;99.90;;;;;;1833593;76;21144;-79
2022/08/07 12:53:11;;;;;;;6.92;4.55;;;27.80;99.90;;;;;;1840178;76;21742;-81
2022/08/07 12:55:45;;;;;;;8.78;4.37;;;27.80;99.90;;;;;;1836001;76;21105;-80
2022/08/07 12:58:20;;;;;;;6.90;3.95;;;27.80;99.90;;;;;;1837636;76;21157;-80
2022/08/07 13:00:56;;;;;;;6.92;4.17;;;27.80;99.90;;;;;;1850551;76;21225;-79
2022/08/07 13:03:31;;;;;;;7.20;4.53;;;27.70;99.80;;;;;;1849520;76;21577;-81
2022/08/07 13:06:05;;;;;;;5.22;3.92;;;27.70;99.70;;;;;;1831792;76;21636;-79
2022/08/07 13:08:40;;;;;;;7.15;4.15;;;27.80;99.70;;;;;;1842782;76;21717;-79
2022/08/07 13:11:15;;;;;;;7.00;4.15;;;27.80;99.60;;;;;;1840683;76;21183;-81
2022/08/07 13:13:50;;;;;;;5.17;3.35;;;27.70;99.50;;;;;;1846115;76;21227;-79
2022/08/07 13:16:30;;;;;;;6.55;4.00;;;27.70;99.50;;;;;;1841141;76;22221;-79
2022/08/07 13:19:04;;;;;;;5.05;3.77;;;27.70;99.50;;;;;;1867248;74;21165;-79
2022/08/07 13:21:40;;;;;;;6.33;3.77;;;27.70;99.40;;;;;;1883583;74;21200;-80
2022/08/07 13:24:14;;;;;;;6.42;3.60;;;27.70;99.50;;;;;;1825943;77;21754;-79
2022/08/07 13:26:50;;;;;;;6.62;3.92;;;27.70;99.40;;;;;;1860854;75;21637;-80
2022/08/07 13:29:38;;;;;;;6.15;3.95;;;27.70;99.40;;;;;;1871801;76;21599;-80
2022/08/07 13:32:14;;;;;;;;;;;27.70;99.40;;;;;;1855507;75;21224;-79
2022/08/07 13:34:49;;;;;;;5.67;3.67;;;27.70;99.30;;;;;;1854027;75;20656;-79
2022/08/07 13:37:23;;;;;;;7.62;3.72;;;27.70;99.30;;;;;;1862399;74;21172;-80